createdAt,value
2023-02-03T00:00:07.752Z,97943.97
2023-02-03T00:02:42.439Z,97953.38
2023-02-03T00:05:09.881Z,97950.84
2023-02-03T00:07:39.421Z,97949.53
2023-02-03T00:10:08.045Z,97950.63
2023-02-03T00:12:35.379Z,97952.13
2023-02-03T00:15:02.998Z,97954.78
2023-02-03T00:17:30.206Z,97955.53
2023-02-03T00:20:02.047Z,97959.84
2023-02-03T00:22:29.222Z,97955.63
2023-02-03T00:24:56.379Z,97956.19
2023-02-03T00:27:23.626Z,97960.94
2023-02-03T00:29:50.867Z,97967.19
2023-02-03T00:32:18.307Z,97975.72
2023-02-03T00:34:45.860Z,97976.53
2023-02-03T00:37:14.050Z,97971.88
2023-02-03T00:39:41.203Z,97983.25
2023-02-03T00:42:08.545Z,97979.91
2023-02-03T00:44:35.844Z,97982.06
2023-02-03T00:47:03.024Z,97978.22
2023-02-03T00:49:30.257Z,97975.97
2023-02-03T00:51:57.765Z,97983.31
2023-02-03T00:54:25.042Z,97978.31
2023-02-03T00:56:52.261Z,97970.34
2023-02-03T00:59:19.486Z,97970.69
2023-02-03T01:01:49.860Z,97968.66
2023-02-03T01:04:17.240Z,97960.41
2023-02-03T01:06:44.998Z,97962.13
2023-02-03T01:09:12.681Z,97963.88
2023-02-03T01:11:39.843Z,97954.84
2023-02-03T01:14:08.170Z,97958.00
2023-02-03T01:16:38.303Z,97955.47
2023-02-03T01:19:06.031Z,97950.66
2023-02-03T01:21:33.738Z,97949.84
2023-02-03T01:24:03.099Z,97953.06
2023-02-03T01:26:31.384Z,97946.16
2023-02-03T01:29:00.460Z,97947.66
2023-02-03T01:31:34.985Z,97951.06
2023-02-03T01:34:03.949Z,97946.75
2023-02-03T01:36:33.559Z,97949.03
2023-02-03T01:39:04.291Z,97952.69
2023-02-03T01:41:37.673Z,97951.34
2023-02-03T01:44:40.334Z,97950.19
2023-02-03T01:47:16.974Z,97943.75
2023-02-03T01:50:14.408Z,97937.03
2023-02-03T01:52:44.189Z,97929.00
2023-02-03T01:55:17.522Z,97935.31
2023-02-03T01:57:51.487Z,97934.34
2023-02-03T02:00:19.438Z,97933.66
2023-02-03T02:02:50.844Z,97937.75
2023-02-03T02:06:09.103Z,97935.59
2023-02-03T02:08:38.620Z,97926.75
2023-02-03T02:11:07.121Z,97923.69
2023-02-03T02:13:36.370Z,97917.88
2023-02-03T02:16:22.276Z,97914.75
2023-02-03T02:19:36.121Z,97905.44
2023-02-03T02:22:18.471Z,97901.06
2023-02-03T02:25:26.832Z,97902.81
2023-02-03T02:28:27.127Z,97899.06
2023-02-03T02:31:32.252Z,97892.72
2023-02-03T02:34:21.356Z,97890.31
2023-02-03T02:37:33.917Z,97893.44
2023-02-03T02:40:25.517Z,97899.19
2023-02-03T02:43:10.504Z,97902.09
2023-02-03T02:46:13.216Z,97888.28
2023-02-03T02:49:03.478Z,97885.97
2023-02-03T02:51:33.221Z,97881.81
2023-02-03T02:54:06.954Z,97869.06
2023-02-03T02:56:40.193Z,97864.72
2023-02-03T02:59:09.452Z,97860.09
2023-02-03T03:01:36.692Z,97861.69
2023-02-03T03:04:10.640Z,97868.03
2023-02-03T03:06:49.499Z,97866.94
2023-02-03T03:09:24.638Z,97857.09
2023-02-03T03:12:07.873Z,97859.53
2023-02-03T03:14:37.502Z,97860.31
2023-02-03T03:17:09.685Z,97862.75
2023-02-03T03:19:43.198Z,97873.47
2023-02-03T03:22:15.094Z,97872.13
2023-02-03T03:24:55.714Z,97875.63
2023-02-03T03:27:38.486Z,97878.34
2023-02-03T03:30:11.850Z,97885.94
2023-02-03T03:32:39.997Z,97892.72
2023-02-03T03:35:08.069Z,97893.25
2023-02-03T03:37:53.507Z,97889.88
2023-02-03T03:40:41.805Z,97868.41
2023-02-03T03:43:18.521Z,97866.09
2023-02-03T03:46:21.859Z,97873.69
2023-02-03T03:49:03.132Z,97866.63
2023-02-03T03:51:45.130Z,97862.50
2023-02-03T03:54:19.325Z,97856.25
2023-02-03T03:57:15.114Z,97847.22
2023-02-03T03:59:49.320Z,97839.09
2023-02-03T04:02:19.148Z,97829.97
2023-02-03T04:04:48.462Z,97823.94
2023-02-03T04:07:16.049Z,97818.41
2023-02-03T04:09:43.343Z,97809.75
2023-02-03T04:12:24.375Z,97805.44
2023-02-03T04:14:51.656Z,97803.22
2023-02-03T04:17:20.403Z,97797.84
2023-02-03T04:19:48.861Z,97795.06
2023-02-03T04:22:16.025Z,97790.75
2023-02-03T04:24:43.197Z,97785.84
2023-02-03T04:27:13.006Z,97766.13
2023-02-03T04:29:40.231Z,97776.25
2023-02-03T04:32:07.515Z,97760.50
2023-02-03T04:34:34.825Z,97770.88
2023-02-03T04:37:01.972Z,97765.44
2023-02-03T04:39:29.310Z,97763.38
2023-02-03T04:41:56.579Z,97762.66
2023-02-03T04:44:23.764Z,97754.31
2023-02-03T04:46:50.962Z,97753.25
2023-02-03T04:49:18.208Z,97751.66
2023-02-03T04:51:45.554Z,97746.63
2023-02-03T04:54:12.811Z,97752.19
2023-02-03T04:56:40.009Z,97762.03
2023-02-03T04:59:07.664Z,97757.22
2023-02-03T05:01:34.962Z,97750.84
2023-02-03T05:04:02.192Z,97751.47
2023-02-03T05:06:32.213Z,97746.88
2023-02-03T05:08:59.496Z,97754.56
2023-02-03T05:11:27.461Z,97750.88
2023-02-03T05:13:54.757Z,97747.66
2023-02-03T05:16:22.126Z,97733.88
2023-02-03T05:18:49.656Z,97731.53
2023-02-03T05:21:17.236Z,97728.22
2023-02-03T05:23:44.568Z,97718.50
2023-02-03T05:26:11.919Z,97711.44
2023-02-03T05:28:39.466Z,97700.78
2023-02-03T05:31:06.882Z,97689.50
2023-02-03T05:33:34.466Z,97687.56
2023-02-03T05:36:01.813Z,97684.31
2023-02-03T05:38:29.016Z,97701.16
2023-02-03T05:41:14.727Z,97692.34
2023-02-03T05:43:42.007Z,97687.88
2023-02-03T05:46:09.193Z,97682.50
2023-02-03T05:48:36.582Z,97677.31
2023-02-03T05:51:03.920Z,97683.19
2023-02-03T05:53:31.153Z,97678.31
2023-02-03T05:55:58.335Z,97683.13
2023-02-03T05:58:25.637Z,97673.09
2023-02-03T06:00:53.315Z,97667.69
2023-02-03T06:03:20.733Z,97668.91
2023-02-03T06:05:48.025Z,97660.34
2023-02-03T06:08:15.325Z,97654.94
2023-02-03T06:10:42.520Z,97654.59
2023-02-03T06:13:13.119Z,97661.56
2023-02-03T06:15:41.243Z,97651.81
2023-02-03T06:18:09.423Z,97652.34
2023-02-03T06:20:36.622Z,97653.97
2023-02-03T06:23:04.028Z,97652.22
2023-02-03T06:25:32.734Z,97657.13
2023-02-03T06:28:00.452Z,97652.28
2023-02-03T06:30:28.943Z,97636.16
2023-02-03T06:32:56.621Z,97638.00
2023-02-03T06:35:23.831Z,97646.28
2023-02-03T06:37:51.043Z,97641.34
2023-02-03T06:40:18.555Z,97637.56
2023-02-03T06:42:47.829Z,97625.00
2023-02-03T06:45:20.244Z,97628.31
2023-02-03T06:47:47.473Z,97632.56
2023-02-03T06:50:18.365Z,97614.69
2023-02-03T06:52:45.945Z,97614.69
2023-02-03T06:55:13.120Z,97617.41
2023-02-03T06:57:45.518Z,97604.72
2023-02-03T07:00:19.181Z,97603.91
2023-02-03T07:02:58.787Z,97605.53
2023-02-03T07:05:28.139Z,97599.00
2023-02-03T07:07:55.550Z,97593.28
2023-02-03T07:10:23.027Z,97598.09
2023-02-03T07:12:51.877Z,97584.44
2023-02-03T07:15:19.303Z,97595.28
2023-02-03T07:17:54.717Z,97596.28
2023-02-03T07:20:23.931Z,97590.50
2023-02-03T07:22:58.724Z,97584.50
2023-02-03T07:25:26.923Z,97595.91
2023-02-03T07:27:54.839Z,97586.53
2023-02-03T07:30:22.240Z,97580.50
2023-02-03T07:32:51.005Z,97589.72
2023-02-03T07:35:19.621Z,97595.09
2023-02-03T07:37:47.057Z,97598.75
2023-02-03T07:40:15.182Z,97600.38
2023-02-03T07:42:44.001Z,97594.38
2023-02-03T07:45:12.771Z,97587.41
2023-02-03T07:47:41.755Z,97593.81
2023-02-03T07:50:11.111Z,97591.41
2023-02-03T07:52:38.616Z,97582.19
2023-02-03T07:55:06.419Z,97583.19
2023-02-03T07:57:33.734Z,97578.78
2023-02-03T08:00:01.042Z,97567.41
2023-02-03T08:02:28.283Z,97557.38
2023-02-03T08:04:58.157Z,97551.56
2023-02-03T08:07:25.609Z,97545.78
2023-02-03T08:09:52.874Z,97546.38
2023-02-03T08:12:20.181Z,97537.91
2023-02-03T08:14:49.901Z,97536.50
2023-02-03T08:17:17.203Z,97530.88
2023-02-03T08:19:44.627Z,97516.91
2023-02-03T08:22:16.811Z,97526.31
2023-02-03T08:24:46.211Z,97510.69
2023-02-03T08:27:20.750Z,97505.06
2023-02-03T08:29:48.551Z,97497.66
2023-02-03T08:32:22.777Z,97497.91
2023-02-03T08:34:51.552Z,97494.25
2023-02-03T08:37:24.457Z,97480.00
2023-02-03T08:39:54.837Z,97476.97
2023-02-03T08:42:22.093Z,97468.94
2023-02-03T08:44:49.445Z,97458.56
2023-02-03T08:47:16.840Z,97446.03
2023-02-03T08:49:44.178Z,97454.66
2023-02-03T08:52:13.306Z,97444.00
2023-02-03T08:54:41.273Z,97448.88
2023-02-03T08:57:09.884Z,97447.00
2023-02-03T08:59:40.819Z,97434.81
2023-02-03T09:02:14.277Z,97436.03
2023-02-03T09:04:41.648Z,97433.63
2023-02-03T09:07:09.096Z,97429.91
2023-02-03T09:09:36.468Z,97431.16
2023-02-03T09:12:05.775Z,97434.75
2023-02-03T09:14:33.820Z,97422.88
2023-02-03T09:17:03.353Z,97412.84
2023-02-03T09:19:32.045Z,97401.09
2023-02-03T09:22:00.654Z,97390.22
2023-02-03T09:24:28.378Z,97400.53
2023-02-03T09:26:56.057Z,97387.06
2023-02-03T09:29:23.324Z,97381.31
2023-02-03T09:31:52.987Z,97373.66
2023-02-03T09:34:21.775Z,97354.50
2023-02-03T09:36:49.448Z,97355.63
2023-02-03T09:39:17.146Z,97342.53
2023-02-03T09:41:56.177Z,97338.34
2023-02-03T09:44:28.073Z,97335.13
2023-02-03T09:47:03.884Z,97319.03
2023-02-03T09:49:44.542Z,97329.06
2023-02-03T09:52:19.332Z,97308.41
2023-02-03T09:55:39.842Z,97302.75
2023-02-03T09:58:14.591Z,97297.00
2023-02-03T10:00:50.925Z,97271.53
2023-02-03T10:03:36.788Z,97272.50
2023-02-03T10:06:16.993Z,97275.38
2023-02-03T10:09:11.806Z,97268.41
2023-02-03T10:11:56.110Z,97265.44
2023-02-03T10:14:56.679Z,97256.78
2023-02-03T10:17:54.362Z,97249.13
2023-02-03T10:20:43.325Z,97242.28
2023-02-03T10:23:39.074Z,97223.97
2023-02-03T10:26:14.442Z,97210.16
2023-02-03T10:28:54.431Z,97211.78
2023-02-03T10:31:28.698Z,97200.53
2023-02-03T10:34:17.362Z,97193.84
2023-02-03T10:37:03.013Z,97174.06
2023-02-03T10:39:37.658Z,97167.53
2023-02-03T10:42:06.945Z,97154.53
2023-02-03T10:44:43.771Z,97140.34
2023-02-03T10:47:34.904Z,97135.50
2023-02-03T10:50:31.514Z,97124.66
2023-02-03T10:53:36.079Z,97134.63
2023-02-03T10:56:08.042Z,97127.75
2023-02-03T10:58:37.629Z,97123.63
2023-02-03T11:01:15.719Z,97110.38
2023-02-03T11:04:00.642Z,97104.69
2023-02-03T11:06:29.493Z,97097.34
2023-02-03T11:08:57.467Z,97094.22
2023-02-03T11:11:29.159Z,97084.50
2023-02-03T11:14:04.332Z,97077.34
2023-02-03T11:16:36.041Z,97065.97
2023-02-03T11:19:21.642Z,97055.91
2023-02-03T11:21:56.075Z,97054.78
2023-02-03T11:24:32.853Z,97050.00
2023-02-03T11:27:16.794Z,97031.91
2023-02-03T11:30:12.098Z,97024.91
2023-02-03T11:32:42.135Z,97009.41
2023-02-03T11:35:24.433Z,97000.56
2023-02-03T11:37:54.993Z,96992.16
2023-02-03T11:40:34.202Z,96988.25
2023-02-03T11:43:15.964Z,96985.50
2023-02-03T11:45:48.800Z,96973.59
2023-02-03T11:49:03.390Z,96975.91
2023-02-03T11:52:03.808Z,96963.47
2023-02-03T11:54:47.864Z,96955.63
2023-02-03T11:57:40.131Z,96951.03
2023-02-03T12:00:27.440Z,96945.81
2023-02-03T12:03:00.465Z,96934.84
2023-02-03T12:06:08.707Z,96919.16
2023-02-03T12:08:35.906Z,96923.16
2023-02-03T12:11:15.092Z,96919.09
2023-02-03T12:14:15.795Z,96909.09
2023-02-03T12:17:23.993Z,96897.50
2023-02-03T12:20:24.430Z,96899.97
2023-02-03T12:23:17.762Z,96881.81
2023-02-03T12:26:22.585Z,96866.44
2023-02-03T12:29:14.782Z,96856.16
2023-02-03T12:32:01.065Z,96859.47
2023-02-03T12:34:56.196Z,96837.44
2023-02-03T12:37:30.768Z,96846.13
2023-02-03T12:40:27.931Z,96831.81
2023-02-03T12:43:13.203Z,96815.00
2023-02-03T12:45:46.295Z,96819.06
2023-02-03T12:48:20.007Z,96801.09
2023-02-03T12:50:56.267Z,96803.22
2023-02-03T12:53:33.242Z,96791.16
2023-02-03T12:56:12.661Z,96780.19
2023-02-03T12:59:20.551Z,96779.06
2023-02-03T13:01:57.768Z,96776.91
2023-02-03T13:05:08.505Z,96758.59
2023-02-03T13:07:46.973Z,96754.47
2023-02-03T13:10:39.914Z,96741.03
2023-02-03T13:13:13.428Z,96753.09
2023-02-03T13:15:50.955Z,96745.72
2023-02-03T13:18:29.589Z,96741.84
2023-02-03T13:20:57.318Z,96729.66
2023-02-03T13:23:25.744Z,96730.38
2023-02-03T13:26:30.857Z,96703.31
2023-02-03T13:29:28.538Z,96707.19
2023-02-03T13:32:55.526Z,96687.31
2023-02-03T13:36:19.603Z,96688.44
2023-02-03T13:39:41.693Z,96665.91
2023-02-03T13:42:16.490Z,96672.00
2023-02-03T13:44:47.726Z,96663.94
2023-02-03T13:47:29.946Z,96657.97
2023-02-03T13:50:17.140Z,96648.41
2023-02-03T13:52:59.403Z,96649.09
2023-02-03T13:55:44.557Z,96633.75
2023-02-03T13:58:41.386Z,96637.22
2023-02-03T14:01:38.837Z,96633.41
2023-02-03T14:04:22.044Z,96620.06
2023-02-03T14:06:49.235Z,96605.81
2023-02-03T14:09:34.208Z,96616.56
2023-02-03T14:12:21.277Z,96610.97
2023-02-03T14:14:51.394Z,96602.75
2023-02-03T14:17:58.270Z,96592.19
2023-02-03T14:20:28.558Z,96601.63
2023-02-03T14:23:07.495Z,96586.53
2023-02-03T14:25:47.355Z,96612.63
2023-02-03T14:28:26.645Z,96583.22
2023-02-03T14:31:13.058Z,96566.28
2023-02-03T14:34:13.227Z,96571.97
2023-02-03T14:36:48.950Z,96568.75
2023-02-03T14:39:22.491Z,96564.88
2023-02-03T14:42:45.659Z,96556.94
2023-02-03T14:45:23.571Z,96558.69
2023-02-03T14:48:45.505Z,96558.38
2023-02-03T14:51:50.434Z,96550.28
2023-02-03T14:55:10.162Z,96564.44
2023-02-03T14:58:06.623Z,96542.63
2023-02-03T15:00:37.944Z,96549.78
2023-02-03T15:03:09.384Z,96542.19
2023-02-03T15:05:45.032Z,96544.41
2023-02-03T15:08:42.973Z,96558.19
2023-02-03T15:11:27.852Z,96559.22
2023-02-03T15:14:14.005Z,96568.78
2023-02-03T15:16:44.204Z,96548.53
2023-02-03T15:19:26.080Z,96558.88
2023-02-03T15:21:53.908Z,96557.66
2023-02-03T15:24:25.843Z,96558.50
2023-02-03T15:26:56.025Z,96560.03
2023-02-03T15:29:34.198Z,96552.94
2023-02-03T15:32:09.852Z,96569.19
2023-02-03T15:34:47.538Z,96585.59
2023-02-03T15:37:38.535Z,96582.81
2023-02-03T15:40:16.599Z,96598.66
2023-02-03T15:43:19.673Z,96608.22
2023-02-03T15:46:02.717Z,96602.25
2023-02-03T15:48:47.052Z,96606.22
2023-02-03T15:51:22.318Z,96614.63
2023-02-03T15:54:10.365Z,96637.91
2023-02-03T15:56:45.067Z,96668.34
2023-02-03T15:59:41.226Z,96684.00
2023-02-03T16:02:30.629Z,96687.50
2023-02-03T16:05:03.519Z,96704.19
2023-02-03T16:07:31.417Z,96680.16
2023-02-03T16:10:00.397Z,96645.88
2023-02-03T16:12:29.975Z,96632.41
2023-02-03T16:14:59.756Z,96629.91
2023-02-03T16:17:39.377Z,96648.06
2023-02-03T16:20:12.280Z,96648.25
2023-02-03T16:22:44.931Z,96633.94
2023-02-03T16:25:25.404Z,96659.88
2023-02-03T16:28:20.674Z,96670.97
2023-02-03T16:31:15.296Z,96687.66
2023-02-03T16:34:07.574Z,96693.38
2023-02-03T16:36:58.762Z,96681.41
2023-02-03T16:39:45.706Z,96689.56
2023-02-03T16:42:38.370Z,96695.50
2023-02-03T16:45:36.228Z,96690.13
2023-02-03T16:48:23.621Z,96687.41
2023-02-03T16:50:54.050Z,96691.63
2023-02-03T16:53:27.706Z,96699.69
2023-02-03T16:55:57.309Z,96702.69
2023-02-03T16:58:25.437Z,96696.34
2023-02-03T17:00:54.632Z,96707.44
2023-02-03T17:03:25.851Z,96708.00
2023-02-03T17:05:54.538Z,96706.25
2023-02-03T17:08:24.663Z,96697.47
2023-02-03T17:10:52.706Z,96696.78
2023-02-03T17:13:22.380Z,96696.91
2023-02-03T17:15:55.432Z,96702.84
2023-02-03T17:18:22.802Z,96707.38
2023-02-03T17:20:50.807Z,96716.41
2023-02-03T17:23:18.339Z,96717.50
2023-02-03T17:25:50.148Z,96710.88
2023-02-03T17:28:18.031Z,96707.53
2023-02-03T17:30:45.415Z,96701.34
2023-02-03T17:33:13.238Z,96711.28
2023-02-03T17:35:45.897Z,96709.75
2023-02-03T17:38:15.048Z,96706.44
2023-02-03T17:54:42.880Z,96714.84
2023-02-03T17:57:10.171Z,96716.41
2023-02-03T17:59:37.859Z,96706.19
2023-02-03T18:02:05.297Z,96711.41
2023-02-03T18:04:32.834Z,96717.59
2023-02-03T18:07:00.239Z,96730.09
2023-02-03T18:09:27.801Z,96722.75
2023-02-03T18:11:55.082Z,96722.75
2023-02-03T18:14:22.408Z,96716.41
2023-02-03T18:16:49.768Z,96720.06
2023-02-03T18:19:17.236Z,96717.44
2023-02-03T18:21:45.363Z,96721.88
2023-02-03T18:24:14.164Z,96730.59
2023-02-03T18:26:52.814Z,96721.78
2023-02-03T18:29:20.615Z,96741.13
2023-02-03T18:31:48.460Z,96740.81
2023-02-03T18:34:17.410Z,96749.59
2023-02-03T18:36:45.513Z,96757.59
2023-02-03T18:39:15.124Z,96774.28
2023-02-03T18:41:42.516Z,96775.47
2023-02-03T18:44:09.958Z,96780.63
2023-02-03T18:46:37.365Z,96779.44
2023-02-03T18:49:07.987Z,96778.06
2023-02-03T18:51:35.369Z,96786.09
2023-02-03T18:54:03.534Z,96780.47
2023-02-03T18:56:37.183Z,96785.28
2023-02-03T18:59:10.091Z,96781.81
2023-02-03T19:01:41.548Z,96779.63
2023-02-03T19:04:09.142Z,96777.31
2023-02-03T19:06:36.622Z,96776.56
2023-02-03T19:09:16.214Z,96781.63
2023-02-03T19:11:44.186Z,96779.41
2023-02-03T19:14:14.309Z,96790.31
2023-02-03T19:16:41.764Z,96783.81
2023-02-03T19:19:09.939Z,96770.44
2023-02-03T19:21:37.356Z,96765.38
2023-02-03T19:24:05.091Z,96760.34
2023-02-03T19:26:32.514Z,96759.38
2023-02-03T19:28:59.900Z,96758.22
2023-02-03T19:31:27.951Z,96764.63
2023-02-03T19:34:00.203Z,96768.94
2023-02-03T19:36:28.953Z,96767.63
2023-02-03T19:38:57.331Z,96764.91
2023-02-03T19:41:27.962Z,96764.31
2023-02-03T19:43:55.329Z,96765.06
2023-02-03T19:46:22.819Z,96764.75
2023-02-03T19:48:50.613Z,96752.78
2023-02-03T19:51:17.954Z,96756.41
2023-02-03T19:53:45.278Z,96756.06
2023-02-03T19:56:13.643Z,96750.94
2023-02-03T19:58:41.043Z,96748.78
2023-02-03T20:01:10.199Z,96747.34
2023-02-03T20:03:37.473Z,96749.28
2023-02-03T20:06:04.936Z,96749.25
2023-02-03T20:08:32.309Z,96748.56
2023-02-03T20:10:59.618Z,96752.41
2023-02-03T20:13:27.069Z,96747.69
2023-02-03T20:15:54.343Z,96757.66
2023-02-03T20:18:21.881Z,96746.75
2023-02-03T20:20:57.083Z,96742.53
2023-02-03T20:23:24.867Z,96735.47
2023-02-03T20:25:56.485Z,96730.25
2023-02-03T20:28:26.788Z,96736.50
2023-02-03T20:30:59.349Z,96732.63
2023-02-03T20:33:29.252Z,96735.41
2023-02-03T20:35:57.765Z,96724.03
2023-02-03T20:38:25.341Z,96724.38
2023-02-03T20:40:52.656Z,96723.53
2023-02-03T20:43:23.636Z,96719.13
2023-02-03T20:45:54.356Z,96728.66
2023-02-03T20:48:23.986Z,96723.44
2023-02-03T20:50:51.819Z,96718.72
2023-02-03T20:53:26.658Z,96720.53
2023-02-03T20:56:01.525Z,96733.00
2023-02-03T20:58:34.048Z,96736.16
2023-02-03T21:01:01.492Z,96742.88
2023-02-03T21:03:47.130Z,96729.25
2023-02-03T21:06:20.615Z,96740.47
2023-02-03T21:08:48.629Z,96744.72
2023-02-03T21:11:27.493Z,96737.59
2023-02-03T21:13:54.742Z,96738.72
2023-02-03T21:16:27.689Z,96742.03
2023-02-03T21:19:02.781Z,96736.00
2023-02-03T21:21:39.599Z,96732.28
2023-02-03T21:24:30.221Z,96740.53
2023-02-03T21:26:59.666Z,96735.66
2023-02-03T21:29:33.666Z,96737.50
2023-02-03T21:32:01.184Z,96736.13
2023-02-03T21:34:37.662Z,96749.84
2023-02-03T21:37:22.629Z,96748.47
2023-02-03T21:39:50.684Z,96748.13
2023-02-03T21:42:42.508Z,96758.09
2023-02-03T21:45:19.908Z,96760.59
2023-02-03T21:47:50.163Z,96753.78
2023-02-03T21:50:33.502Z,96756.72
2023-02-03T21:53:29.534Z,96744.16
2023-02-03T21:55:59.661Z,96751.88
2023-02-03T21:58:32.443Z,96745.31
2023-02-03T22:01:02.863Z,96749.25
2023-02-03T22:03:40.807Z,96747.44
2023-02-03T22:06:36.083Z,96744.16
2023-02-03T22:09:03.372Z,96748.34
2023-02-03T22:11:33.219Z,96750.50
2023-02-03T22:14:00.869Z,96747.53
2023-02-03T22:16:29.233Z,96741.88
2023-02-03T22:18:57.024Z,96738.38
2023-02-03T22:21:24.387Z,96732.56
2023-02-03T22:23:51.758Z,96743.19
2023-02-03T22:26:19.914Z,96746.00
2023-02-03T22:28:47.331Z,96747.25
2023-02-03T22:31:15.622Z,96741.56
2023-02-03T22:33:43.503Z,96739.09
2023-02-03T22:36:11.720Z,96740.69
2023-02-03T22:38:40.757Z,96738.06
2023-02-03T22:41:11.972Z,96749.13
2023-02-03T22:43:40.196Z,96755.19
2023-02-03T22:46:07.971Z,96758.94
2023-02-03T22:48:35.714Z,96753.50
2023-02-03T22:51:03.232Z,96758.25
2023-02-03T22:53:30.679Z,96750.19
2023-02-03T22:55:57.953Z,96761.56
2023-02-03T22:58:25.234Z,96764.16
2023-02-03T23:00:55.028Z,96763.06
2023-02-03T23:03:22.425Z,96760.22
2023-02-03T23:05:49.626Z,96763.41
2023-02-03T23:08:16.970Z,96754.56
2023-02-03T23:10:44.243Z,96757.06
2023-02-03T23:13:11.696Z,96747.03
2023-02-03T23:15:39.081Z,96748.69
2023-02-03T23:18:06.661Z,96747.13
2023-02-03T23:20:34.026Z,96748.25
2023-02-03T23:23:01.229Z,96743.28
2023-02-03T23:25:28.554Z,96737.53
2023-02-03T23:27:55.841Z,96727.22
2023-02-03T23:30:23.117Z,96719.06
2023-02-03T23:32:50.380Z,96721.44
2023-02-03T23:35:36.537Z,96714.84
2023-02-03T23:38:03.940Z,96718.13
2023-02-03T23:40:31.341Z,96716.28
2023-02-03T23:42:58.813Z,96708.72
2023-02-03T23:45:25.998Z,96711.97
2023-02-03T23:47:53.323Z,96708.88
2023-02-03T23:50:20.745Z,96705.88
2023-02-03T23:52:48.721Z,96696.50
2023-02-03T23:55:22.076Z,96706.16
2023-02-03T23:57:50.186Z,96705.09
